sensor_id;sensor_type;location;lat;lon;timestamp;P1;durP1;ratioP1;P2;durP2;ratioP2
22648;SDS011;11491;41.942;24.220;2023-04-01T00:01:05;3.47;;;1.30;;
22648;SDS011;11491;41.942;24.220;2023-04-01T00:03:32;3.90;;;1.60;;
22648;SDS011;11491;41.942;24.220;2023-04-01T00:06:00;5.93;;;1.50;;
22648;SDS011;11491;41.942;24.220;2023-04-01T00:08:28;4.90;;;1.25;;
22648;SDS011;11491;41.942;24.220;2023-04-01T00:10:55;6.10;;;1.58;;
22648;SDS011;11491;41.942;24.220;2023-04-01T00:13:24;5.55;;;1.50;;
22648;SDS011;11491;41.942;24.220;2023-04-01T00:15:51;4.10;;;1.30;;
22648;SDS011;11491;41.942;24.220;2023-04-01T00:18:18;6.13;;;1.73;;
22648;SDS011;11491;41.942;24.220;2023-04-01T00:20:46;3.65;;;2.00;;
22648;SDS011;11491;41.942;24.220;2023-04-01T00:23:14;3.80;;;1.67;;
22648;SDS011;11491;41.942;24.220;2023-04-01T00:25:41;3.35;;;1.40;;
22648;SDS011;11491;41.942;24.220;2023-04-01T00:28:08;18.83;;;9.98;;
22648;SDS011;11491;41.942;24.220;2023-04-01T00:30:37;21.90;;;17.30;;
22648;SDS011;11491;41.942;24.220;2023-04-01T00:33:04;32.92;;;21.85;;
22648;SDS011;11491;41.942;24.220;2023-04-01T00:35:30;43.45;;;26.13;;
22648;SDS011;11491;41.942;24.220;2023-04-01T00:37:57;12.85;;;10.63;;
22648;SDS011;11491;41.942;24.220;2023-04-01T00:40:26;13.50;;;8.98;;
22648;SDS011;11491;41.942;24.220;2023-04-01T00:42:54;7.70;;;2.83;;
22648;SDS011;11491;41.942;24.220;2023-04-01T00:45:23;10.80;;;7.80;;
22648;SDS011;11491;41.942;24.220;2023-04-01T00:47:54;5.25;;;2.25;;
22648;SDS011;11491;41.942;24.220;2023-04-01T00:50:22;2.72;;;1.60;;
22648;SDS011;11491;41.942;24.220;2023-04-01T00:52:51;5.85;;;2.50;;
22648;SDS011;11491;41.942;24.220;2023-04-01T00:55:19;7.82;;;3.97;;
22648;SDS011;11491;41.942;24.220;2023-04-01T00:57:48;7.25;;;3.63;;
22648;SDS011;11491;41.942;24.220;2023-04-01T01:00:18;6.13;;;2.00;;
22648;SDS011;11491;41.942;24.220;2023-04-01T01:02:45;3.53;;;2.38;;
22648;SDS011;11491;41.942;24.220;2023-04-01T01:05:14;3.58;;;2.08;;
22648;SDS011;11491;41.942;24.220;2023-04-01T01:07:44;5.40;;;1.95;;
22648;SDS011;11491;41.942;24.220;2023-04-01T01:10:23;4.85;;;2.00;;
22648;SDS011;11491;41.942;24.220;2023-04-01T01:12:54;5.07;;;2.28;;
22648;SDS011;11491;41.942;24.220;2023-04-01T01:15:30;7.47;;;2.20;;
22648;SDS011;11491;41.942;24.220;2023-04-01T01:18:03;4.18;;;1.80;;
22648;SDS011;11491;41.942;24.220;2023-04-01T01:20:55;3.65;;;2.05;;
22648;SDS011;11491;41.942;24.220;2023-04-01T01:29:33;5.22;;;1.98;;
22648;SDS011;11491;41.942;24.220;2023-04-01T01:32:18;4.82;;;1.55;;
22648;SDS011;11491;41.942;24.220;2023-04-01T01:35:05;3.80;;;1.50;;
22648;SDS011;11491;41.942;24.220;2023-04-01T01:37:39;2.78;;;1.40;;
22648;SDS011;11491;41.942;24.220;2023-04-01T01:40:08;4.93;;;1.50;;
22648;SDS011;11491;41.942;24.220;2023-04-01T01:42:39;3.03;;;1.58;;
22648;SDS011;11491;41.942;24.220;2023-04-01T01:45:10;2.78;;;1.20;;
22648;SDS011;11491;41.942;24.220;2023-04-01T01:47:43;4.20;;;1.75;;
22648;SDS011;11491;41.942;24.220;2023-04-01T01:50:12;7.25;;;2.03;;
22648;SDS011;11491;41.942;24.220;2023-04-01T01:52:40;3.75;;;1.90;;
22648;SDS011;11491;41.942;24.220;2023-04-01T01:55:22;6.93;;;3.20;;
22648;SDS011;11491;41.942;24.220;2023-04-01T01:57:51;4.60;;;1.73;;
22648;SDS011;11491;41.942;24.220;2023-04-01T02:00:19;7.40;;;1.98;;
22648;SDS011;11491;41.942;24.220;2023-04-01T02:02:47;7.63;;;1.58;;
22648;SDS011;11491;41.942;24.220;2023-04-01T02:05:18;4.32;;;1.20;;
22648;SDS011;11491;41.942;24.220;2023-04-01T02:07:48;9.70;;;1.52;;
22648;SDS011;11491;41.942;24.220;2023-04-01T02:10:20;2.92;;;1.45;;
22648;SDS011;11491;41.942;24.220;2023-04-01T02:12:50;4.95;;;1.60;;
22648;SDS011;11491;41.942;24.220;2023-04-01T02:15:20;4.85;;;1.85;;
22648;SDS011;11491;41.942;24.220;2023-04-01T02:17:48;29.60;;;12.95;;
22648;SDS011;11491;41.942;24.220;2023-04-01T02:20:18;7.25;;;2.75;;
22648;SDS011;11491;41.942;24.220;2023-04-01T02:22:48;6.80;;;2.60;;
22648;SDS011;11491;41.942;24.220;2023-04-01T02:25:18;2.80;;;1.33;;
22648;SDS011;11491;41.942;24.220;2023-04-01T02:27:47;5.70;;;2.80;;
22648;SDS011;11491;41.942;24.220;2023-04-01T02:30:15;5.70;;;1.92;;
22648;SDS011;11491;41.942;24.220;2023-04-01T02:32:43;3.53;;;1.45;;
22648;SDS011;11491;41.942;24.220;2023-04-01T02:35:11;7.45;;;1.73;;
22648;SDS011;11491;41.942;24.220;2023-04-01T02:37:43;2.25;;;1.40;;
22648;SDS011;11491;41.942;24.220;2023-04-01T02:40:14;3.90;;;1.70;;
22648;SDS011;11491;41.942;24.220;2023-04-01T02:42:41;4.43;;;1.98;;
22648;SDS011;11491;41.942;24.220;2023-04-01T02:45:09;7.60;;;1.75;;
22648;SDS011;11491;41.942;24.220;2023-04-01T02:47:36;3.92;;;2.00;;
22648;SDS011;11491;41.942;24.220;2023-04-01T02:50:03;6.55;;;2.47;;
22648;SDS011;11491;41.942;24.220;2023-04-01T02:52:31;7.68;;;2.55;;
22648;SDS011;11491;41.942;24.220;2023-04-01T02:54:59;6.82;;;2.50;;
22648;SDS011;11491;41.942;24.220;2023-04-01T02:57:26;15.38;;;7.47;;
22648;SDS011;11491;41.942;24.220;2023-04-01T02:59:53;77.03;;;32.75;;
22648;SDS011;11491;41.942;24.220;2023-04-01T03:02:20;8.35;;;4.55;;
22648;SDS011;11491;41.942;24.220;2023-04-01T03:04:46;9.27;;;5.20;;
22648;SDS011;11491;41.942;24.220;2023-04-01T03:07:13;10.15;;;5.68;;
22648;SDS011;11491;41.942;24.220;2023-04-01T03:09:40;15.27;;;7.57;;
22648;SDS011;11491;41.942;24.220;2023-04-01T03:12:08;8.90;;;5.60;;
22648;SDS011;11491;41.942;24.220;2023-04-01T03:14:35;33.85;;;18.98;;
22648;SDS011;11491;41.942;24.220;2023-04-01T03:17:02;29.75;;;19.30;;
22648;SDS011;11491;41.942;24.220;2023-04-01T03:19:28;33.53;;;21.33;;
22648;SDS011;11491;41.942;24.220;2023-04-01T03:21:55;34.85;;;23.13;;
22648;SDS011;11491;41.942;24.220;2023-04-01T03:24:22;35.75;;;25.25;;
22648;SDS011;11491;41.942;24.220;2023-04-01T03:26:48;52.10;;;30.98;;
22648;SDS011;11491;41.942;24.220;2023-04-01T03:29:17;31.00;;;17.38;;
22648;SDS011;11491;41.942;24.220;2023-04-01T03:31:43;54.63;;;31.38;;
22648;SDS011;11491;41.942;24.220;2023-04-01T03:34:10;35.13;;;19.98;;
22648;SDS011;11491;41.942;24.220;2023-04-01T03:36:37;14.63;;;8.70;;
22648;SDS011;11491;41.942;24.220;2023-04-01T03:39:04;19.77;;;12.43;;
22648;SDS011;11491;41.942;24.220;2023-04-01T03:41:31;23.42;;;14.57;;
22648;SDS011;11491;41.942;24.220;2023-04-01T03:43:59;23.35;;;13.50;;
22648;SDS011;11491;41.942;24.220;2023-04-01T03:46:27;30.27;;;15.20;;
22648;SDS011;11491;41.942;24.220;2023-04-01T03:48:54;35.22;;;21.67;;
22648;SDS011;11491;41.942;24.220;2023-04-01T03:51:20;51.80;;;34.35;;
22648;SDS011;11491;41.942;24.220;2023-04-01T03:53:47;43.95;;;28.33;;
22648;SDS011;11491;41.942;24.220;2023-04-01T03:56:15;130.23;;;80.35;;
22648;SDS011;11491;41.942;24.220;2023-04-01T03:58:42;78.07;;;47.35;;
22648;SDS011;11491;41.942;24.220;2023-04-01T04:01:15;65.97;;;42.30;;
22648;SDS011;11491;41.942;24.220;2023-04-01T04:03:45;158.00;;;81.30;;
22648;SDS011;11491;41.942;24.220;2023-04-01T04:06:13;115.03;;;56.13;;
22648;SDS011;11491;41.942;24.220;2023-04-01T04:08:41;31.52;;;15.73;;
22648;SDS011;11491;41.942;24.220;2023-04-01T04:11:08;12.88;;;7.50;;
22648;SDS011;11491;41.942;24.220;2023-04-01T04:13:35;10.07;;;5.90;;
22648;SDS011;11491;41.942;24.220;2023-04-01T04:16:02;9.70;;;4.57;;
22648;SDS011;11491;41.942;24.220;2023-04-01T04:18:28;52.05;;;39.80;;
22648;SDS011;11491;41.942;24.220;2023-04-01T04:20:57;33.28;;;22.73;;
22648;SDS011;11491;41.942;24.220;2023-04-01T04:23:24;36.72;;;24.75;;
22648;SDS011;11491;41.942;24.220;2023-04-01T04:25:54;19.77;;;12.98;;
22648;SDS011;11491;41.942;24.220;2023-04-01T04:28:22;36.70;;;18.77;;
22648;SDS011;11491;41.942;24.220;2023-04-01T04:30:48;19.85;;;10.50;;
22648;SDS011;11491;41.942;24.220;2023-04-01T04:33:15;52.25;;;29.48;;
22648;SDS011;11491;41.942;24.220;2023-04-01T04:35:42;18.58;;;11.48;;
22648;SDS011;11491;41.942;24.220;2023-04-01T04:38:10;33.42;;;29.05;;
22648;SDS011;11491;41.942;24.220;2023-04-01T04:40:37;10.48;;;8.05;;
22648;SDS011;11491;41.942;24.220;2023-04-01T04:43:04;5.38;;;3.92;;
22648;SDS011;11491;41.942;24.220;2023-04-01T04:45:32;7.43;;;3.50;;
22648;SDS011;11491;41.942;24.220;2023-04-01T04:47:58;7.47;;;2.97;;
22648;SDS011;11491;41.942;24.220;2023-04-01T04:50:25;5.28;;;1.98;;
22648;SDS011;11491;41.942;24.220;2023-04-01T04:52:52;9.10;;;2.53;;
22648;SDS011;11491;41.942;24.220;2023-04-01T04:55:21;7.55;;;2.78;;
22648;SDS011;11491;41.942;24.220;2023-04-01T04:57:48;9.20;;;2.33;;
22648;SDS011;11491;41.942;24.220;2023-04-01T05:00:15;7.65;;;2.53;;
22648;SDS011;11491;41.942;24.220;2023-04-01T05:02:42;3.35;;;2.40;;
22648;SDS011;11491;41.942;24.220;2023-04-01T05:05:09;4.55;;;1.95;;
22648;SDS011;11491;41.942;24.220;2023-04-01T05:07:36;6.80;;;2.33;;
22648;SDS011;11491;41.942;24.220;2023-04-01T05:10:03;7.65;;;3.67;;
22648;SDS011;11491;41.942;24.220;2023-04-01T05:12:32;9.25;;;6.03;;
22648;SDS011;11491;41.942;24.220;2023-04-01T05:15:02;14.13;;;10.38;;
22648;SDS011;11491;41.942;24.220;2023-04-01T05:17:31;15.20;;;10.60;;
22648;SDS011;11491;41.942;24.220;2023-04-01T05:19:58;28.42;;;15.73;;
22648;SDS011;11491;41.942;24.220;2023-04-01T05:22:24;26.45;;;16.25;;
22648;SDS011;11491;41.942;24.220;2023-04-01T05:24:52;29.90;;;19.75;;
22648;SDS011;11491;41.942;24.220;2023-04-01T05:27:19;20.35;;;13.05;;
22648;SDS011;11491;41.942;24.220;2023-04-01T05:29:47;18.63;;;11.00;;
22648;SDS011;11491;41.942;24.220;2023-04-01T05:32:14;12.90;;;7.82;;
22648;SDS011;11491;41.942;24.220;2023-04-01T05:34:41;38.17;;;26.30;;
22648;SDS011;11491;41.942;24.220;2023-04-01T05:37:08;83.22;;;51.90;;
22648;SDS011;11491;41.942;24.220;2023-04-01T05:39:35;36.08;;;21.90;;
22648;SDS011;11491;41.942;24.220;2023-04-01T05:42:02;41.97;;;23.00;;
22648;SDS011;11491;41.942;24.220;2023-04-01T05:44:31;37.60;;;23.42;;
22648;SDS011;11491;41.942;24.220;2023-04-01T05:46:59;23.15;;;12.88;;
22648;SDS011;11491;41.942;24.220;2023-04-01T05:49:26;41.15;;;24.20;;
22648;SDS011;11491;41.942;24.220;2023-04-01T05:51:53;67.78;;;35.47;;
22648;SDS011;11491;41.942;24.220;2023-04-01T05:54:19;38.63;;;24.65;;
22648;SDS011;11491;41.942;24.220;2023-04-01T05:56:46;113.47;;;55.90;;
22648;SDS011;11491;41.942;24.220;2023-04-01T05:59:13;16.67;;;10.73;;
22648;SDS011;11491;41.942;24.220;2023-04-01T06:01:40;16.38;;;9.30;;
22648;SDS011;11491;41.942;24.220;2023-04-01T06:04:10;12.65;;;6.25;;
22648;SDS011;11491;41.942;24.220;2023-04-01T06:06:40;26.23;;;16.13;;
22648;SDS011;11491;41.942;24.220;2023-04-01T06:09:07;25.65;;;18.38;;
22648;SDS011;11491;41.942;24.220;2023-04-01T06:11:42;13.15;;;7.85;;
22648;SDS011;11491;41.942;24.220;2023-04-01T06:14:20;11.13;;;6.30;;
22648;SDS011;11491;41.942;24.220;2023-04-01T06:16:59;19.65;;;9.75;;
22648;SDS011;11491;41.942;24.220;2023-04-01T06:19:38;15.68;;;6.53;;
22648;SDS011;11491;41.942;24.220;2023-04-01T06:25:17;9.07;;;4.45;;
22648;SDS011;11491;41.942;24.220;2023-04-01T06:27:56;11.02;;;5.43;;
22648;SDS011;11491;41.942;24.220;2023-04-01T06:30:37;7.07;;;3.33;;
22648;SDS011;11491;41.942;24.220;2023-04-01T06:36:08;11.23;;;4.32;;
22648;SDS011;11491;41.942;24.220;2023-04-01T06:44:36;27.70;;;14.93;;
22648;SDS011;11491;41.942;24.220;2023-04-01T06:47:13;18.23;;;10.80;;
22648;SDS011;11491;41.942;24.220;2023-04-01T06:49:53;18.33;;;9.77;;
22648;SDS011;11491;41.942;24.220;2023-04-01T06:52:34;11.82;;;7.03;;
22648;SDS011;11491;41.942;24.220;2023-04-01T06:55:12;11.95;;;5.97;;
22648;SDS011;11491;41.942;24.220;2023-04-01T06:57:51;14.10;;;6.30;;
22648;SDS011;11491;41.942;24.220;2023-04-01T07:00:22;9.68;;;3.55;;
22648;SDS011;11491;41.942;24.220;2023-04-01T07:02:55;11.73;;;4.85;;
22648;SDS011;11491;41.942;24.220;2023-04-01T07:05:32;15.30;;;10.18;;
22648;SDS011;11491;41.942;24.220;2023-04-01T07:08:02;18.00;;;9.80;;
22648;SDS011;11491;41.942;24.220;2023-04-01T07:10:35;18.00;;;8.15;;
22648;SDS011;11491;41.942;24.220;2023-04-01T07:13:11;8.60;;;2.83;;
22648;SDS011;11491;41.942;24.220;2023-04-01T07:15:42;6.63;;;3.20;;
22648;SDS011;11491;41.942;24.220;2023-04-01T07:18:23;8.40;;;3.03;;
22648;SDS011;11491;41.942;24.220;2023-04-01T07:20:57;8.40;;;3.65;;
22648;SDS011;11491;41.942;24.220;2023-04-01T07:23:27;11.60;;;3.13;;
22648;SDS011;11491;41.942;24.220;2023-04-01T07:25:58;14.95;;;8.25;;
22648;SDS011;11491;41.942;24.220;2023-04-01T07:28:29;8.48;;;4.75;;
22648;SDS011;11491;41.942;24.220;2023-04-01T07:31:00;9.20;;;3.10;;
22648;SDS011;11491;41.942;24.220;2023-04-01T07:33:37;6.60;;;3.10;;
22648;SDS011;11491;41.942;24.220;2023-04-01T07:36:11;5.03;;;3.85;;
22648;SDS011;11491;41.942;24.220;2023-04-01T07:38:49;11.18;;;4.25;;
22648;SDS011;11491;41.942;24.220;2023-04-01T07:41:27;7.03;;;2.53;;
22648;SDS011;11491;41.942;24.220;2023-04-01T07:44:06;10.07;;;2.85;;
22648;SDS011;11491;41.942;24.220;2023-04-01T07:46:45;8.35;;;3.72;;
22648;SDS011;11491;41.942;24.220;2023-04-01T07:49:21;7.85;;;2.70;;
22648;SDS011;11491;41.942;24.220;2023-04-01T07:51:55;11.05;;;5.97;;
22648;SDS011;11491;41.942;24.220;2023-04-01T07:54:30;7.28;;;3.25;;
22648;SDS011;11491;41.942;24.220;2023-04-01T07:57:02;7.97;;;2.90;;
22648;SDS011;11491;41.942;24.220;2023-04-01T07:59:35;9.10;;;4.60;;
22648;SDS011;11491;41.942;24.220;2023-04-01T08:02:13;6.32;;;3.03;;
22648;SDS011;11491;41.942;24.220;2023-04-01T08:04:54;8.60;;;4.03;;
22648;SDS011;11491;41.942;24.220;2023-04-01T08:07:28;9.98;;;3.55;;
22648;SDS011;11491;41.942;24.220;2023-04-01T08:10:05;9.68;;;2.10;;
22648;SDS011;11491;41.942;24.220;2023-04-01T08:12:42;6.28;;;2.83;;
22648;SDS011;11491;41.942;24.220;2023-04-01T08:15:18;11.43;;;4.32;;
22648;SDS011;11491;41.942;24.220;2023-04-01T08:17:52;11.00;;;6.93;;
22648;SDS011;11491;41.942;24.220;2023-04-01T08:20:28;11.85;;;3.72;;
22648;SDS011;11491;41.942;24.220;2023-04-01T08:23:03;15.07;;;4.25;;
22648;SDS011;11491;41.942;24.220;2023-04-01T08:25:39;7.65;;;3.53;;
22648;SDS011;11491;41.942;24.220;2023-04-01T08:28:13;19.40;;;7.85;;
22648;SDS011;11491;41.942;24.220;2023-04-01T08:30:45;9.48;;;4.65;;
22648;SDS011;11491;41.942;24.220;2023-04-01T08:33:17;7.97;;;3.75;;
22648;SDS011;11491;41.942;24.220;2023-04-01T08:35:50;14.18;;;4.40;;
22648;SDS011;11491;41.942;24.220;2023-04-01T08:38:22;10.15;;;2.50;;
22648;SDS011;11491;41.942;24.220;2023-04-01T08:41:01;7.68;;;2.17;;
22648;SDS011;11491;41.942;24.220;2023-04-01T08:43:50;8.77;;;3.28;;
22648;SDS011;11491;41.942;24.220;2023-04-01T08:46:41;7.88;;;5.38;;
22648;SDS011;11491;41.942;24.220;2023-04-01T08:49:25;18.67;;;7.28;;
22648;SDS011;11491;41.942;24.220;2023-04-01T08:52:07;17.45;;;10.77;;
22648;SDS011;11491;41.942;24.220;2023-04-01T08:54:55;11.35;;;5.65;;
22648;SDS011;11491;41.942;24.220;2023-04-01T08:57:44;7.72;;;3.22;;
22648;SDS011;11491;41.942;24.220;2023-04-01T09:00:21;12.18;;;5.72;;
22648;SDS011;11491;41.942;24.220;2023-04-01T09:03:00;12.80;;;3.28;;
22648;SDS011;11491;41.942;24.220;2023-04-01T09:06:10;12.45;;;4.85;;
22648;SDS011;11491;41.942;24.220;2023-04-01T09:09:08;13.07;;;3.42;;
22648;SDS011;11491;41.942;24.220;2023-04-01T09:14:45;16.58;;;6.07;;
22648;SDS011;11491;41.942;24.220;2023-04-01T09:23:10;12.15;;;3.53;;
22648;SDS011;11491;41.942;24.220;2023-04-01T09:25:58;20.45;;;7.38;;
22648;SDS011;11491;41.942;24.220;2023-04-01T09:28:38;9.45;;;3.63;;
22648;SDS011;11491;41.942;24.220;2023-04-01T09:31:21;6.50;;;2.75;;
22648;SDS011;11491;41.942;24.220;2023-04-01T09:34:25;10.00;;;2.47;;
22648;SDS011;11491;41.942;24.220;2023-04-01T09:37:17;8.52;;;2.03;;
22648;SDS011;11491;41.942;24.220;2023-04-01T09:39:49;7.85;;;2.20;;
22648;SDS011;11491;41.942;24.220;2023-04-01T09:42:45;9.90;;;2.33;;
22648;SDS011;11491;41.942;24.220;2023-04-01T09:45:29;8.40;;;2.35;;
22648;SDS011;11491;41.942;24.220;2023-04-01T09:48:08;13.70;;;5.90;;
22648;SDS011;11491;41.942;24.220;2023-04-01T09:50:47;5.85;;;1.50;;
22648;SDS011;11491;41.942;24.220;2023-04-01T09:53:23;8.52;;;1.70;;
22648;SDS011;11491;41.942;24.220;2023-04-01T10:05:25;7.78;;;2.42;;
22648;SDS011;11491;41.942;24.220;2023-04-01T10:17:54;8.38;;;3.85;;
22648;SDS011;11491;41.942;24.220;2023-04-01T10:20:46;3.85;;;2.20;;
22648;SDS011;11491;41.942;24.220;2023-04-01T10:53:55;5.95;;;2.10;;
22648;SDS011;11491;41.942;24.220;2023-04-01T11:11:47;12.75;;;4.18;;
22648;SDS011;11491;41.942;24.220;2023-04-01T11:17:40;8.45;;;5.43;;
22648;SDS011;11491;41.942;24.220;2023-04-01T11:23:27;17.48;;;4.22;;
22648;SDS011;11491;41.942;24.220;2023-04-01T11:26:09;11.57;;;3.38;;
22648;SDS011;11491;41.942;24.220;2023-04-01T11:29:02;5.45;;;1.38;;
22648;SDS011;11491;41.942;24.220;2023-04-01T11:31:47;6.63;;;2.38;;
22648;SDS011;11491;41.942;24.220;2023-04-01T11:34:27;10.77;;;2.72;;
22648;SDS011;11491;41.942;24.220;2023-04-01T11:37:24;13.50;;;8.70;;
22648;SDS011;11491;41.942;24.220;2023-04-01T11:40:03;11.05;;;3.58;;
22648;SDS011;11491;41.942;24.220;2023-04-01T11:42:40;8.95;;;3.53;;
22648;SDS011;11491;41.942;24.220;2023-04-01T11:45:17;6.90;;;3.90;;
22648;SDS011;11491;41.942;24.220;2023-04-01T11:47:56;6.40;;;2.60;;
22648;SDS011;11491;41.942;24.220;2023-04-01T11:50:38;13.50;;;3.47;;
22648;SDS011;11491;41.942;24.220;2023-04-01T11:55:55;8.82;;;2.17;;
22648;SDS011;11491;41.942;24.220;2023-04-01T11:58:35;8.90;;;3.13;;
22648;SDS011;11491;41.942;24.220;2023-04-01T12:01:17;5.20;;;1.95;;
22648;SDS011;11491;41.942;24.220;2023-04-01T12:04:00;7.35;;;2.72;;
22648;SDS011;11491;41.942;24.220;2023-04-01T12:07:06;7.00;;;2.40;;
22648;SDS011;11491;41.942;24.220;2023-04-01T12:09:47;8.07;;;3.33;;
22648;SDS011;11491;41.942;24.220;2023-04-01T12:12:24;9.93;;;3.10;;
22648;SDS011;11491;41.942;24.220;2023-04-01T12:14:59;11.55;;;5.45;;
22648;SDS011;11491;41.942;24.220;2023-04-01T12:17:45;7.18;;;3.70;;
22648;SDS011;11491;41.942;24.220;2023-04-01T12:20:29;7.97;;;5.47;;
22648;SDS011;11491;41.942;24.220;2023-04-01T12:23:06;4.35;;;2.65;;
22648;SDS011;11491;41.942;24.220;2023-04-01T12:25:50;10.57;;;2.40;;
22648;SDS011;11491;41.942;24.220;2023-04-01T12:28:29;6.45;;;1.80;;
22648;SDS011;11491;41.942;24.220;2023-04-01T12:31:13;8.60;;;3.45;;
22648;SDS011;11491;41.942;24.220;2023-04-01T12:33:56;5.65;;;3.78;;
22648;SDS011;11491;41.942;24.220;2023-04-01T12:36:35;9.90;;;3.50;;
22648;SDS011;11491;41.942;24.220;2023-04-01T12:42:14;24.45;;;17.05;;
22648;SDS011;11491;41.942;24.220;2023-04-01T12:44:54;19.63;;;11.50;;
22648;SDS011;11491;41.942;24.220;2023-04-01T12:47:34;11.48;;;5.72;;
22648;SDS011;11491;41.942;24.220;2023-04-01T12:53:21;4.65;;;1.90;;
22648;SDS011;11491;41.942;24.220;2023-04-01T12:55:59;11.38;;;3.20;;
22648;SDS011;11491;41.942;24.220;2023-04-01T13:01:37;8.63;;;2.42;;
22648;SDS011;11491;41.942;24.220;2023-04-01T13:04:28;9.82;;;3.08;;
22648;SDS011;11491;41.942;24.220;2023-04-01T13:07:24;7.60;;;2.17;;
22648;SDS011;11491;41.942;24.220;2023-04-01T13:10:02;8.53;;;2.50;;
22648;SDS011;11491;41.942;24.220;2023-04-01T13:12:44;9.00;;;2.83;;
22648;SDS011;11491;41.942;24.220;2023-04-01T13:15:35;10.80;;;3.30;;
22648;SDS011;11491;41.942;24.220;2023-04-01T13:18:12;4.88;;;1.80;;
22648;SDS011;11491;41.942;24.220;2023-04-01T13:20:49;6.53;;;1.90;;
22648;SDS011;11491;41.942;24.220;2023-04-01T13:23:32;4.43;;;1.70;;
22648;SDS011;11491;41.942;24.220;2023-04-01T13:26:12;5.20;;;1.80;;
22648;SDS011;11491;41.942;24.220;2023-04-01T13:28:45;9.48;;;3.10;;
22648;SDS011;11491;41.942;24.220;2023-04-01T13:31:23;16.75;;;5.95;;
22648;SDS011;11491;41.942;24.220;2023-04-01T13:34:06;11.75;;;5.03;;
22648;SDS011;11491;41.942;24.220;2023-04-01T13:36:46;27.55;;;16.27;;
22648;SDS011;11491;41.942;24.220;2023-04-01T13:39:34;7.38;;;3.15;;
22648;SDS011;11491;41.942;24.220;2023-04-01T13:42:15;7.05;;;2.85;;
22648;SDS011;11491;41.942;24.220;2023-04-01T13:44:46;13.93;;;6.28;;
22648;SDS011;11491;41.942;24.220;2023-04-01T13:47:24;11.40;;;5.80;;
22648;SDS011;11491;41.942;24.220;2023-04-01T13:53:17;10.73;;;5.53;;
22648;SDS011;11491;41.942;24.220;2023-04-01T13:56:15;8.77;;;4.32;;
22648;SDS011;11491;41.942;24.220;2023-04-01T13:58:55;6.90;;;4.28;;
22648;SDS011;11491;41.942;24.220;2023-04-01T14:01:32;6.35;;;3.40;;
22648;SDS011;11491;41.942;24.220;2023-04-01T14:07:15;7.80;;;4.43;;
22648;SDS011;11491;41.942;24.220;2023-04-01T14:09:51;5.97;;;2.80;;
22648;SDS011;11491;41.942;24.220;2023-04-01T14:12:34;19.27;;;11.95;;
22648;SDS011;11491;41.942;24.220;2023-04-01T14:18:16;31.88;;;23.00;;
22648;SDS011;11491;41.942;24.220;2023-04-01T14:21:07;74.28;;;44.30;;
22648;SDS011;11491;41.942;24.220;2023-04-01T14:23:56;75.55;;;46.55;;
22648;SDS011;11491;41.942;24.220;2023-04-01T14:27:09;50.03;;;30.85;;
22648;SDS011;11491;41.942;24.220;2023-04-01T14:29:58;63.03;;;39.47;;
22648;SDS011;11491;41.942;24.220;2023-04-01T14:32:39;27.58;;;17.30;;
22648;SDS011;11491;41.942;24.220;2023-04-01T14:35:25;50.03;;;30.58;;
22648;SDS011;11491;41.942;24.220;2023-04-01T14:38:05;34.53;;;23.92;;
22648;SDS011;11491;41.942;24.220;2023-04-01T14:40:52;28.52;;;19.90;;
22648;SDS011;11491;41.942;24.220;2023-04-01T14:43:29;37.65;;;27.80;;
22648;SDS011;11491;41.942;24.220;2023-04-01T14:49:17;11.65;;;7.85;;
22648;SDS011;11491;41.942;24.220;2023-04-01T14:51:48;10.55;;;6.43;;
22648;SDS011;11491;41.942;24.220;2023-04-01T14:54:18;11.10;;;6.72;;
22648;SDS011;11491;41.942;24.220;2023-04-01T14:57:01;11.93;;;6.57;;
22648;SDS011;11491;41.942;24.220;2023-04-01T14:59:31;23.88;;;14.10;;
22648;SDS011;11491;41.942;24.220;2023-04-01T15:02:01;17.75;;;8.50;;
22648;SDS011;11491;41.942;24.220;2023-04-01T15:04:49;11.93;;;6.10;;
22648;SDS011;11491;41.942;24.220;2023-04-01T15:10:40;8.15;;;4.38;;
22648;SDS011;11491;41.942;24.220;2023-04-01T15:13:17;11.68;;;6.18;;
22648;SDS011;11491;41.942;24.220;2023-04-01T15:15:59;12.18;;;7.55;;
22648;SDS011;11491;41.942;24.220;2023-04-01T15:18:35;7.57;;;5.07;;
22648;SDS011;11491;41.942;24.220;2023-04-01T15:24:10;6.55;;;4.88;;
22648;SDS011;11491;41.942;24.220;2023-04-01T15:26:55;9.30;;;6.35;;
22648;SDS011;11491;41.942;24.220;2023-04-01T15:32:32;9.90;;;6.50;;
22648;SDS011;11491;41.942;24.220;2023-04-01T15:35:19;7.40;;;4.57;;
22648;SDS011;11491;41.942;24.220;2023-04-01T15:38:02;8.07;;;5.20;;
22648;SDS011;11491;41.942;24.220;2023-04-01T15:40:41;12.40;;;7.05;;
22648;SDS011;11491;41.942;24.220;2023-04-01T15:43:16;11.23;;;6.43;;
22648;SDS011;11491;41.942;24.220;2023-04-01T15:46:08;2.35;;;1.48;;
22648;SDS011;11491;41.942;24.220;2023-04-01T15:48:56;10.02;;;6.22;;
22648;SDS011;11491;41.942;24.220;2023-04-01T15:51:35;29.80;;;20.65;;
22648;SDS011;11491;41.942;24.220;2023-04-01T15:57:31;7.47;;;4.43;;
22648;SDS011;11491;41.942;24.220;2023-04-01T16:00:11;5.85;;;3.63;;
22648;SDS011;11491;41.942;24.220;2023-04-01T16:03:02;6.85;;;4.88;;
22648;SDS011;11491;41.942;24.220;2023-04-01T16:05:55;8.88;;;4.40;;
22648;SDS011;11491;41.942;24.220;2023-04-01T16:08:58;14.50;;;7.55;;
22648;SDS011;11491;41.942;24.220;2023-04-01T16:11:48;9.07;;;5.82;;
22648;SDS011;11491;41.942;24.220;2023-04-01T16:20:20;5.97;;;4.32;;
22648;SDS011;11491;41.942;24.220;2023-04-01T16:22:54;4.20;;;3.22;;
22648;SDS011;11491;41.942;24.220;2023-04-01T16:28:04;6.32;;;4.22;;
22648;SDS011;11491;41.942;24.220;2023-04-01T16:30:50;3.40;;;1.88;;
22648;SDS011;11491;41.942;24.220;2023-04-01T16:33:32;8.02;;;6.10;;
22648;SDS011;11491;41.942;24.220;2023-04-01T16:36:09;10.98;;;7.68;;
22648;SDS011;11491;41.942;24.220;2023-04-01T16:38:41;6.85;;;5.15;;
22648;SDS011;11491;41.942;24.220;2023-04-01T16:41:24;11.20;;;7.40;;
22648;SDS011;11491;41.942;24.220;2023-04-01T16:43:57;6.43;;;5.32;;
22648;SDS011;11491;41.942;24.220;2023-04-01T16:46:41;11.47;;;9.57;;
22648;SDS011;11491;41.942;24.220;2023-04-01T16:49:23;16.20;;;10.07;;
22648;SDS011;11491;41.942;24.220;2023-04-01T16:54:58;11.65;;;10.45;;
22648;SDS011;11491;41.942;24.220;2023-04-01T16:57:36;16.48;;;10.50;;
22648;SDS011;11491;41.942;24.220;2023-04-01T17:00:15;28.08;;;20.38;;
22648;SDS011;11491;41.942;24.220;2023-04-01T17:02:49;30.17;;;22.88;;
22648;SDS011;11491;41.942;24.220;2023-04-01T17:05:48;19.90;;;17.55;;
22648;SDS011;11491;41.942;24.220;2023-04-01T17:08:25;97.25;;;57.90;;
22648;SDS011;11491;41.942;24.220;2023-04-01T17:11:08;74.72;;;48.15;;
22648;SDS011;11491;41.942;24.220;2023-04-01T17:13:46;70.15;;;48.10;;
22648;SDS011;11491;41.942;24.220;2023-04-01T17:16:28;118.53;;;61.38;;
22648;SDS011;11491;41.942;24.220;2023-04-01T17:19:13;67.10;;;36.47;;
22648;SDS011;11491;41.942;24.220;2023-04-01T17:21:54;56.10;;;33.80;;
22648;SDS011;11491;41.942;24.220;2023-04-01T17:24:40;22.05;;;15.75;;
22648;SDS011;11491;41.942;24.220;2023-04-01T17:27:26;37.15;;;26.02;;
22648;SDS011;11491;41.942;24.220;2023-04-01T17:30:14;51.05;;;38.20;;
22648;SDS011;11491;41.942;24.220;2023-04-01T17:33:05;68.18;;;48.10;;
22648;SDS011;11491;41.942;24.220;2023-04-01T17:35:56;104.38;;;79.28;;
22648;SDS011;11491;41.942;24.220;2023-04-01T17:41:24;56.95;;;39.22;;